createdAt,value
2019-02-26T00:01:36.285Z,-0.01
2019-02-26T00:05:47.841Z,-0.09
2019-02-26T00:09:55.725Z,-0.07
2019-02-26T00:14:03.873Z,-0.04
2019-02-26T00:18:14.026Z,-0.15
2019-02-26T00:22:22.246Z,-0.06
2019-02-26T00:26:34.113Z,-0.06
2019-02-26T00:30:42.481Z,0.07
2019-02-26T00:34:53.080Z,0.13
2019-02-26T00:39:02.910Z,-0.02
2019-02-26T00:43:11.765Z,-0.10
2019-02-26T00:47:19.553Z,0.00
2019-02-26T00:51:27.661Z,-0.07
2019-02-26T00:55:37.362Z,-0.25
2019-02-26T00:59:46.412Z,-0.20
2019-02-26T01:03:55.397Z,-0.20
2019-02-26T01:08:02.833Z,-0.06
2019-02-26T01:12:13.219Z,-0.11
2019-02-26T01:16:20.763Z,-0.11
2019-02-26T01:20:30.234Z,-0.09
2019-02-26T01:24:38.137Z,-0.05
2019-02-26T01:28:48.280Z,-0.07
2019-02-26T01:32:57.600Z,0.03
2019-02-26T01:37:05.960Z,-0.21
2019-02-26T01:41:15.574Z,-0.17
2019-02-26T01:45:25.020Z,-0.12
2019-02-26T01:49:33.583Z,-0.11
2019-02-26T01:53:42.327Z,-0.17
2019-02-26T01:57:51.065Z,-0.17
2019-02-26T02:01:59.372Z,-0.06
2019-02-26T02:06:10.645Z,-0.09
2019-02-26T02:10:17.346Z,-0.16
2019-02-26T02:14:25.066Z,-0.05
2019-02-26T02:18:32.668Z,-0.07
2019-02-26T02:22:42.183Z,-0.13
2019-02-26T02:26:52.961Z,-0.09
2019-02-26T02:31:00.272Z,-0.14
2019-02-26T02:35:10.109Z,-0.22
2019-02-26T02:39:20.786Z,0.08
2019-02-26T02:43:28.025Z,-0.21
2019-02-26T02:47:38.698Z,-0.19
2019-02-26T02:51:46.400Z,-0.15
2019-02-26T02:55:54.222Z,-0.11
2019-02-26T03:00:02.964Z,-0.16
2019-02-26T03:04:14.717Z,-0.37
2019-02-26T03:08:22.627Z,-0.25
2019-02-26T03:12:30.775Z,-0.22
2019-02-26T03:16:41.945Z,-0.28
2019-02-26T03:20:51.228Z,-0.37
2019-02-26T03:24:59.601Z,-0.34
2019-02-26T03:29:09.089Z,-0.44
2019-02-26T03:33:16.707Z,-0.46
2019-02-26T03:37:25.816Z,-0.41
2019-02-26T03:41:33.761Z,-0.28
2019-02-26T03:45:41.342Z,-0.30
2019-02-26T03:49:50.091Z,-0.30
2019-02-26T03:53:57.699Z,-0.32
2019-02-26T03:58:06.104Z,-0.24
2019-02-26T04:02:15.325Z,-0.21
2019-02-26T04:06:23.877Z,-0.09
2019-02-26T04:10:31.591Z,0.15
2019-02-26T04:14:39.717Z,0.23
2019-02-26T04:18:49.086Z,-0.09
2019-02-26T04:22:57.294Z,0.12
2019-02-26T04:27:47.267Z,0.28
2019-02-26T04:32:43.565Z,-0.19
2019-02-26T04:37:38.521Z,-0.15
2019-02-26T04:42:11.944Z,-0.27
2019-02-26T04:46:42.386Z,-0.30
2019-02-26T04:50:51.815Z,-0.41
2019-02-26T04:55:00.379Z,-0.36
2019-02-26T04:59:09.818Z,-0.39
2019-02-26T05:03:20.079Z,-0.35
2019-02-26T05:07:27.883Z,-0.26
2019-02-26T05:11:39.872Z,-0.22
2019-02-26T05:15:45.762Z,-0.26
2019-02-26T05:19:53.774Z,-0.47
2019-02-26T05:24:03.010Z,-0.46
2019-02-26T05:28:12.537Z,-0.32
2019-02-26T05:32:21.855Z,-0.22
2019-02-26T05:36:31.746Z,-0.06
2019-02-26T05:40:42.757Z,-0.01
2019-02-26T05:44:53.758Z,0.21
2019-02-26T05:49:00.639Z,0.38
2019-02-26T05:53:11.433Z,0.56
2019-02-26T05:57:29.164Z,1.28
2019-02-26T06:01:28.088Z,1.78
2019-02-26T06:05:41.134Z,1.65
2019-02-26T06:09:48.007Z,1.79
2019-02-26T06:13:58.317Z,2.07
2019-02-26T06:18:05.783Z,2.26
2019-02-26T06:22:16.956Z,2.54
2019-02-26T06:26:28.166Z,2.50
2019-02-26T06:30:33.424Z,2.81
2019-02-26T06:34:41.240Z,3.46
2019-02-26T06:38:49.760Z,4.40
2019-02-26T06:42:58.915Z,4.60
2019-02-26T06:47:07.294Z,4.06
2019-02-26T06:51:16.579Z,3.83
2019-02-26T06:55:24.748Z,3.80
2019-02-26T06:59:34.941Z,4.12
2019-02-26T07:03:42.715Z,4.38
2019-02-26T07:07:54.040Z,4.20
2019-02-26T07:12:01.808Z,4.30
2019-02-26T07:16:10.094Z,4.14
2019-02-26T07:20:17.746Z,5.04
2019-02-26T07:24:27.186Z,5.23
2019-02-26T07:28:39.187Z,5.74
2019-02-26T07:32:48.484Z,6.04
2019-02-26T07:36:56.429Z,6.43
2019-02-26T07:41:06.163Z,6.37
2019-02-26T07:45:19.685Z,7.11
2019-02-26T07:49:25.855Z,6.80
2019-02-26T07:53:34.186Z,7.21
2019-02-26T07:57:43.623Z,7.19
2019-02-26T08:01:51.504Z,6.83
2019-02-26T08:06:03.624Z,6.67
2019-02-26T08:10:14.457Z,6.62
2019-02-26T08:14:23.370Z,7.37
2019-02-26T08:18:32.249Z,7.81
2019-02-26T08:22:39.976Z,7.44
2019-02-26T08:26:49.683Z,7.74
2019-02-26T08:30:57.534Z,8.00
2019-02-26T08:35:05.745Z,6.77
2019-02-26T08:39:15.730Z,6.40
2019-02-26T08:43:23.630Z,6.45
2019-02-26T08:47:31.677Z,6.64
2019-02-26T08:51:39.875Z,6.71
2019-02-26T08:55:47.764Z,6.83
2019-02-26T08:59:55.520Z,7.03
2019-02-26T09:04:03.539Z,6.99
2019-02-26T09:08:13.343Z,7.61
2019-02-26T09:12:22.416Z,7.87
2019-02-26T09:16:32.789Z,7.49
2019-02-26T09:20:42.526Z,7.39
2019-02-26T09:24:52.045Z,7.56
2019-02-26T09:29:00.284Z,7.78
2019-02-26T09:33:10.857Z,7.87
2019-02-26T09:37:18.253Z,7.97
2019-02-26T09:41:26.488Z,7.99
2019-02-26T09:45:34.820Z,7.81
2019-02-26T09:49:42.519Z,7.56
2019-02-26T09:53:53.867Z,7.67
2019-02-26T09:58:03.558Z,7.69
2019-02-26T10:02:11.317Z,7.73
2019-02-26T10:06:21.607Z,7.97
2019-02-26T10:10:31.184Z,8.17
2019-02-26T10:14:38.901Z,8.08
2019-02-26T10:18:47.874Z,8.17
2019-02-26T10:23:00.000Z,8.71
2019-02-26T10:27:08.708Z,8.58
2019-02-26T10:31:16.064Z,8.46
2019-02-26T10:35:32.454Z,8.43
2019-02-26T10:39:33.334Z,8.23
2019-02-26T10:43:41.592Z,8.64
2019-02-26T10:47:51.337Z,9.20
2019-02-26T10:52:00.352Z,9.55
2019-02-26T10:56:08.595Z,9.64
2019-02-26T11:00:19.743Z,9.84
2019-02-26T11:04:34.647Z,10.03
2019-02-26T11:08:38.759Z,10.18
2019-02-26T11:12:48.233Z,10.38
2019-02-26T11:16:56.544Z,10.48
2019-02-26T11:21:04.855Z,11.16
2019-02-26T11:25:13.355Z,10.74
2019-02-26T11:29:22.738Z,10.67
2019-02-26T11:33:30.671Z,11.26
2019-02-26T11:37:42.242Z,11.11
2019-02-26T11:41:53.771Z,10.59
2019-02-26T11:46:01.558Z,10.02
2019-02-26T11:50:11.865Z,9.42
2019-02-26T11:54:19.618Z,9.53
2019-02-26T11:58:27.340Z,9.48
2019-02-26T12:02:37.070Z,9.23
2019-02-26T12:06:45.336Z,9.35
2019-02-26T12:10:57.659Z,10.17
2019-02-26T12:15:04.420Z,10.53
2019-02-26T12:19:12.601Z,10.53
2019-02-26T12:23:22.755Z,10.48
2019-02-26T12:27:30.276Z,10.26
2019-02-26T12:31:39.042Z,9.87
2019-02-26T12:35:46.833Z,9.95
2019-02-26T12:39:55.542Z,10.23
2019-02-26T12:44:10.662Z,10.15
2019-02-26T12:48:16.256Z,9.84
2019-02-26T12:52:25.117Z,9.66
2019-02-26T12:56:36.760Z,9.76
2019-02-26T13:00:43.088Z,9.93
2019-02-26T13:04:53.378Z,9.63
2019-02-26T13:09:00.561Z,9.55
2019-02-26T13:13:10.373Z,9.40
2019-02-26T13:17:21.005Z,9.41
2019-02-26T13:21:28.197Z,9.18
2019-02-26T13:25:36.354Z,8.96
2019-02-26T13:33:54.831Z,8.37
2019-02-26T13:38:03.142Z,8.24
2019-02-26T13:42:14.066Z,8.14
2019-02-26T13:46:20.735Z,8.05
2019-02-26T13:50:29.410Z,7.93
2019-02-26T13:54:37.449Z,7.84
2019-02-26T13:58:45.561Z,7.74
2019-02-26T14:02:53.878Z,7.65
2019-02-26T14:07:01.485Z,7.46
2019-02-26T14:11:09.522Z,7.35
2019-02-26T14:15:19.896Z,7.23
2019-02-26T14:19:27.677Z,7.23
2019-02-26T14:23:35.936Z,7.48
2019-02-26T14:27:44.015Z,7.35
2019-02-26T14:31:51.845Z,7.26
2019-02-26T14:36:00.147Z,7.10
2019-02-26T14:40:09.870Z,7.08
2019-02-26T14:44:17.921Z,7.12
2019-02-26T14:48:26.037Z,7.04
2019-02-26T14:52:33.758Z,7.03
2019-02-26T14:56:41.493Z,7.06
2019-02-26T15:00:57.344Z,6.96
2019-02-26T15:04:59.424Z,6.96
2019-02-26T15:09:08.651Z,6.91
2019-02-26T15:13:17.819Z,6.78
2019-02-26T15:17:25.496Z,6.73
2019-02-26T15:21:33.800Z,6.65
2019-02-26T15:25:44.080Z,6.66
2019-02-26T15:29:52.323Z,6.59
2019-02-26T15:34:00.711Z,6.52
2019-02-26T15:38:08.958Z,6.44
2019-02-26T15:42:19.122Z,6.53
2019-02-26T15:46:28.570Z,6.43
2019-02-26T15:50:37.750Z,6.30
2019-02-26T15:54:46.175Z,6.35
2019-02-26T15:58:54.379Z,6.27
2019-02-26T16:03:02.003Z,6.33
2019-02-26T16:07:10.187Z,6.22
2019-02-26T16:11:18.420Z,6.25
2019-02-26T16:15:26.322Z,6.20
2019-02-26T16:19:34.029Z,6.17
2019-02-26T16:23:42.158Z,6.19
2019-02-26T16:27:51.683Z,6.11
2019-02-26T16:31:59.702Z,6.04
2019-02-26T16:36:07.625Z,6.04
2019-02-26T16:40:15.756Z,5.98
2019-02-26T16:44:24.799Z,5.90
2019-02-26T16:48:33.030Z,5.94
2019-02-26T16:52:41.349Z,5.78
2019-02-26T16:56:50.243Z,5.92
2019-02-26T17:00:57.833Z,5.88
2019-02-26T17:05:06.185Z,5.94
2019-02-26T17:09:13.909Z,5.96
2019-02-26T17:13:22.428Z,5.94
2019-02-26T17:17:31.074Z,5.91
2019-02-26T17:21:38.864Z,5.97
2019-02-26T17:25:47.113Z,5.91
2019-02-26T17:29:55.044Z,5.91
2019-02-26T17:34:02.714Z,5.86
2019-02-26T17:38:12.360Z,5.82
2019-02-26T17:42:20.307Z,5.82
2019-02-26T17:46:28.683Z,5.79
2019-02-26T17:50:37.759Z,5.68
2019-02-26T17:54:45.452Z,5.63
2019-02-26T17:58:53.701Z,5.72
2019-02-26T18:03:07.352Z,5.86
2019-02-26T18:07:15.105Z,5.83
2019-02-26T18:11:23.611Z,5.75
2019-02-26T18:15:31.997Z,5.73
2019-02-26T18:19:40.861Z,5.70
2019-02-26T18:23:48.947Z,5.67
2019-02-26T18:27:57.665Z,5.55
2019-02-26T18:32:06.423Z,5.46
2019-02-26T18:36:16.024Z,5.42
2019-02-26T18:40:28.058Z,5.32
2019-02-26T18:44:35.637Z,5.16
2019-02-26T18:48:43.472Z,5.05
2019-02-26T18:52:52.282Z,4.91
2019-02-26T18:57:01.296Z,4.82
2019-02-26T19:01:09.626Z,4.69
2019-02-26T19:05:20.628Z,4.64
2019-02-26T19:09:27.856Z,4.57
2019-02-26T19:13:36.304Z,4.50
2019-02-26T19:17:45.953Z,4.41
2019-02-26T19:21:54.701Z,4.37
2019-02-26T19:26:02.627Z,4.38
2019-02-26T19:30:12.812Z,4.33
2019-02-26T19:34:21.135Z,4.28
2019-02-26T19:38:28.921Z,4.30
2019-02-26T19:42:37.333Z,4.32
2019-02-26T19:46:49.389Z,4.23
2019-02-26T19:50:55.537Z,4.18
2019-02-26T19:55:05.853Z,4.18
2019-02-26T19:59:15.412Z,4.17
2019-02-26T20:03:23.237Z,4.16
2019-02-26T20:07:32.524Z,4.17
2019-02-26T20:11:40.897Z,4.20
2019-02-26T20:15:49.617Z,4.22
2019-02-26T20:19:58.150Z,4.39
2019-02-26T20:24:05.710Z,4.46
2019-02-26T20:28:13.266Z,4.66
2019-02-26T20:32:21.410Z,4.86
2019-02-26T20:36:29.240Z,5.00
2019-02-26T20:40:37.490Z,4.96
2019-02-26T20:44:45.429Z,4.93
2019-02-26T20:48:53.739Z,4.89
2019-02-26T20:53:05.656Z,4.97
2019-02-26T20:57:11.371Z,4.99
2019-02-26T21:01:19.625Z,5.13
2019-02-26T21:05:27.374Z,5.10
2019-02-26T21:09:37.849Z,5.00
2019-02-26T21:13:45.319Z,5.04
2019-02-26T21:17:53.022Z,5.02
2019-02-26T21:22:01.150Z,4.88
2019-02-26T21:26:09.256Z,4.93
2019-02-26T21:30:17.891Z,4.88
2019-02-26T21:34:26.104Z,4.67
2019-02-26T21:38:38.609Z,4.39
2019-02-26T21:42:44.105Z,4.24
2019-02-26T21:46:53.738Z,4.22
2019-02-26T21:51:02.051Z,4.15
2019-02-26T21:55:10.145Z,4.14
2019-02-26T21:59:18.378Z,3.91
2019-02-26T22:03:26.519Z,4.05
2019-02-26T22:07:34.209Z,3.99
2019-02-26T22:11:42.424Z,4.06
2019-02-26T22:15:50.745Z,3.85
2019-02-26T22:19:58.457Z,4.05
2019-02-26T22:24:07.002Z,3.97
2019-02-26T22:28:15.815Z,3.92
2019-02-26T22:32:23.520Z,3.89
2019-02-26T22:36:33.310Z,3.86
2019-02-26T22:40:41.295Z,3.91
2019-02-26T22:44:49.002Z,3.87
2019-02-26T22:48:57.168Z,3.99
2019-02-26T22:53:05.080Z,3.81
2019-02-26T22:57:13.249Z,3.91
2019-02-26T23:01:36.383Z,3.96
2019-02-26T23:05:40.858Z,3.96
2019-02-26T23:09:52.086Z,3.90
2019-02-26T23:14:02.692Z,3.79
2019-02-26T23:18:09.908Z,3.88
2019-02-26T23:22:18.137Z,3.84
2019-02-26T23:26:26.467Z,3.82
2019-02-26T23:30:35.174Z,3.92
2019-02-26T23:34:43.623Z,3.86
2019-02-26T23:38:51.328Z,3.98
2019-02-26T23:42:59.034Z,4.02
2019-02-26T23:47:10.557Z,4.02
2019-02-26T23:51:21.030Z,4.06
2019-02-26T23:55:29.530Z,4.01
2019-02-26T23:59:37.608Z,3.94
